sensor_id;sensor_type;location;lat;lon;timestamp;P1;durP1;ratioP1;P2;durP2;ratioP2
4565;SDS011;2295;51.050;14.608;2022-09-01T00:00:24;7.32;;;4.65;;
4565;SDS011;2295;51.050;14.608;2022-09-01T00:02:56;7.90;;;3.95;;
4565;SDS011;2295;51.050;14.608;2022-09-01T00:05:25;8.75;;;3.95;;
4565;SDS011;2295;51.050;14.608;2022-09-01T00:07:54;5.38;;;4.43;;
4565;SDS011;2295;51.050;14.608;2022-09-01T00:10:22;7.70;;;4.05;;
4565;SDS011;2295;51.050;14.608;2022-09-01T00:12:50;4.18;;;3.88;;
4565;SDS011;2295;51.050;14.608;2022-09-01T00:15:19;4.70;;;4.20;;
4565;SDS011;2295;51.050;14.608;2022-09-01T00:17:47;7.07;;;4.20;;
4565;SDS011;2295;51.050;14.608;2022-09-01T00:20:15;4.65;;;4.15;;
4565;SDS011;2295;51.050;14.608;2022-09-01T00:22:47;6.15;;;4.88;;
4565;SDS011;2295;51.050;14.608;2022-09-01T00:25:16;4.55;;;4.15;;
4565;SDS011;2295;51.050;14.608;2022-09-01T00:27:45;4.72;;;4.15;;
4565;SDS011;2295;51.050;14.608;2022-09-01T00:30:14;8.45;;;4.53;;
4565;SDS011;2295;51.050;14.608;2022-09-01T00:32:43;5.13;;;3.88;;
4565;SDS011;2295;51.050;14.608;2022-09-01T00:35:12;4.68;;;4.18;;
4565;SDS011;2295;51.050;14.608;2022-09-01T00:37:41;4.28;;;3.90;;
4565;SDS011;2295;51.050;14.608;2022-09-01T00:40:12;7.43;;;4.28;;
4565;SDS011;2295;51.050;14.608;2022-09-01T00:42:42;8.38;;;3.83;;
4565;SDS011;2295;51.050;14.608;2022-09-01T00:45:14;5.07;;;3.95;;
4565;SDS011;2295;51.050;14.608;2022-09-01T00:47:42;7.57;;;5.10;;
4565;SDS011;2295;51.050;14.608;2022-09-01T00:50:10;5.15;;;4.75;;
4565;SDS011;2295;51.050;14.608;2022-09-01T00:52:42;7.85;;;4.97;;
4565;SDS011;2295;51.050;14.608;2022-09-01T00:55:16;6.32;;;4.53;;
4565;SDS011;2295;51.050;14.608;2022-09-01T00:57:48;4.28;;;3.88;;
4565;SDS011;2295;51.050;14.608;2022-09-01T01:00:17;5.00;;;4.50;;
4565;SDS011;2295;51.050;14.608;2022-09-01T01:02:47;5.82;;;4.38;;
4565;SDS011;2295;51.050;14.608;2022-09-01T01:05:22;5.55;;;4.20;;
4565;SDS011;2295;51.050;14.608;2022-09-01T01:07:53;6.68;;;4.22;;
4565;SDS011;2295;51.050;14.608;2022-09-01T01:10:23;4.90;;;4.25;;
4565;SDS011;2295;51.050;14.608;2022-09-01T01:12:52;16.05;;;4.30;;
4565;SDS011;2295;51.050;14.608;2022-09-01T01:15:21;3.90;;;3.65;;
4565;SDS011;2295;51.050;14.608;2022-09-01T01:17:49;8.57;;;4.28;;
4565;SDS011;2295;51.050;14.608;2022-09-01T01:20:17;4.90;;;4.50;;
4565;SDS011;2295;51.050;14.608;2022-09-01T01:23:08;5.43;;;4.10;;
4565;SDS011;2295;51.050;14.608;2022-09-01T01:25:45;4.22;;;3.90;;
4565;SDS011;2295;51.050;14.608;2022-09-01T01:28:17;4.40;;;4.00;;
4565;SDS011;2295;51.050;14.608;2022-09-01T01:30:48;3.63;;;3.40;;
4565;SDS011;2295;51.050;14.608;2022-09-01T01:33:18;4.25;;;3.90;;
4565;SDS011;2295;51.050;14.608;2022-09-01T01:35:49;3.28;;;3.08;;
4565;SDS011;2295;51.050;14.608;2022-09-01T01:38:21;4.30;;;3.90;;
4565;SDS011;2295;51.050;14.608;2022-09-01T01:40:52;4.15;;;3.85;;
4565;SDS011;2295;51.050;14.608;2022-09-01T01:43:21;4.65;;;3.97;;
4565;SDS011;2295;51.050;14.608;2022-09-01T01:45:52;4.25;;;3.30;;
4565;SDS011;2295;51.050;14.608;2022-09-01T01:48:24;5.35;;;3.65;;
4565;SDS011;2295;51.050;14.608;2022-09-01T01:50:53;4.22;;;3.83;;
4565;SDS011;2295;51.050;14.608;2022-09-01T01:53:23;12.25;;;4.28;;
4565;SDS011;2295;51.050;14.608;2022-09-01T01:55:53;4.18;;;3.80;;
4565;SDS011;2295;51.050;14.608;2022-09-01T01:58:22;7.90;;;3.90;;
4565;SDS011;2295;51.050;14.608;2022-09-01T02:00:52;4.68;;;4.25;;
4565;SDS011;2295;51.050;14.608;2022-09-01T02:03:24;4.30;;;3.92;;
4565;SDS011;2295;51.050;14.608;2022-09-01T02:05:56;3.70;;;3.40;;
4565;SDS011;2295;51.050;14.608;2022-09-01T02:08:33;5.28;;;3.42;;
4565;SDS011;2295;51.050;14.608;2022-09-01T02:11:04;4.30;;;3.90;;
4565;SDS011;2295;51.050;14.608;2022-09-01T02:13:34;8.13;;;4.13;;
4565;SDS011;2295;51.050;14.608;2022-09-01T02:16:03;4.72;;;4.32;;
4565;SDS011;2295;51.050;14.608;2022-09-01T02:18:39;4.63;;;4.22;;
4565;SDS011;2295;51.050;14.608;2022-09-01T02:21:10;5.35;;;3.58;;
4565;SDS011;2295;51.050;14.608;2022-09-01T02:23:44;5.53;;;3.60;;
4565;SDS011;2295;51.050;14.608;2022-09-01T02:26:16;5.93;;;4.18;;
4565;SDS011;2295;51.050;14.608;2022-09-01T02:28:46;6.45;;;3.70;;
4565;SDS011;2295;51.050;14.608;2022-09-01T02:31:21;3.85;;;3.55;;
4565;SDS011;2295;51.050;14.608;2022-09-01T02:33:50;4.22;;;3.85;;
4565;SDS011;2295;51.050;14.608;2022-09-01T02:36:20;5.95;;;4.00;;
4565;SDS011;2295;51.050;14.608;2022-09-01T02:38:50;4.85;;;4.22;;
4565;SDS011;2295;51.050;14.608;2022-09-01T02:41:23;5.20;;;3.92;;
4565;SDS011;2295;51.050;14.608;2022-09-01T02:43:54;4.60;;;3.75;;
4565;SDS011;2295;51.050;14.608;2022-09-01T02:46:26;5.93;;;3.80;;
4565;SDS011;2295;51.050;14.608;2022-09-01T02:48:54;4.15;;;3.85;;
4565;SDS011;2295;51.050;14.608;2022-09-01T02:51:26;3.15;;;2.95;;
4565;SDS011;2295;51.050;14.608;2022-09-01T02:53:54;4.72;;;3.35;;
4565;SDS011;2295;51.050;14.608;2022-09-01T02:56:24;3.83;;;3.35;;
4565;SDS011;2295;51.050;14.608;2022-09-01T02:58:54;3.88;;;3.55;;
4565;SDS011;2295;51.050;14.608;2022-09-01T03:01:24;4.35;;;3.13;;
4565;SDS011;2295;51.050;14.608;2022-09-01T03:03:56;7.38;;;3.50;;
4565;SDS011;2295;51.050;14.608;2022-09-01T03:06:25;4.45;;;3.05;;
4565;SDS011;2295;51.050;14.608;2022-09-01T03:08:55;5.03;;;3.20;;
4565;SDS011;2295;51.050;14.608;2022-09-01T03:11:27;3.85;;;3.13;;
4565;SDS011;2295;51.050;14.608;2022-09-01T03:13:57;3.50;;;3.20;;
4565;SDS011;2295;51.050;14.608;2022-09-01T03:16:26;4.07;;;3.67;;
4565;SDS011;2295;51.050;14.608;2022-09-01T03:18:56;3.85;;;3.50;;
4565;SDS011;2295;51.050;14.608;2022-09-01T03:21:25;3.55;;;3.25;;
4565;SDS011;2295;51.050;14.608;2022-09-01T03:23:53;3.72;;;3.42;;
4565;SDS011;2295;51.050;14.608;2022-09-01T03:26:23;4.00;;;3.70;;
4565;SDS011;2295;51.050;14.608;2022-09-01T03:28:53;6.07;;;4.70;;
4565;SDS011;2295;51.050;14.608;2022-09-01T03:31:21;5.07;;;4.18;;
4565;SDS011;2295;51.050;14.608;2022-09-01T03:33:56;4.95;;;3.85;;
4565;SDS011;2295;51.050;14.608;2022-09-01T03:36:26;4.57;;;4.18;;
4565;SDS011;2295;51.050;14.608;2022-09-01T03:38:56;5.95;;;4.13;;
4565;SDS011;2295;51.050;14.608;2022-09-01T03:41:25;4.25;;;3.80;;
4565;SDS011;2295;51.050;14.608;2022-09-01T03:43:57;8.23;;;4.00;;
4565;SDS011;2295;51.050;14.608;2022-09-01T03:46:26;6.40;;;4.20;;
4565;SDS011;2295;51.050;14.608;2022-09-01T03:49:02;7.93;;;4.18;;
4565;SDS011;2295;51.050;14.608;2022-09-01T03:51:33;4.10;;;3.80;;
4565;SDS011;2295;51.050;14.608;2022-09-01T03:54:04;5.70;;;4.05;;
4565;SDS011;2295;51.050;14.608;2022-09-01T03:56:33;4.70;;;4.40;;
4565;SDS011;2295;51.050;14.608;2022-09-01T03:59:03;4.60;;;4.15;;
4565;SDS011;2295;51.050;14.608;2022-09-01T04:01:33;4.38;;;4.00;;
4565;SDS011;2295;51.050;14.608;2022-09-01T04:04:09;4.18;;;3.78;;
4565;SDS011;2295;51.050;14.608;2022-09-01T04:06:39;9.88;;;3.97;;
4565;SDS011;2295;51.050;14.608;2022-09-01T04:09:08;6.25;;;4.47;;
4565;SDS011;2295;51.050;14.608;2022-09-01T04:11:36;4.28;;;4.00;;
4565;SDS011;2295;51.050;14.608;2022-09-01T04:14:12;8.55;;;3.92;;
4565;SDS011;2295;51.050;14.608;2022-09-01T04:16:41;4.35;;;3.95;;
4565;SDS011;2295;51.050;14.608;2022-09-01T04:19:28;5.60;;;5.05;;
4565;SDS011;2295;51.050;14.608;2022-09-01T04:22:02;4.60;;;4.30;;
4565;SDS011;2295;51.050;14.608;2022-09-01T04:24:31;6.28;;;4.82;;
4565;SDS011;2295;51.050;14.608;2022-09-01T04:27:00;13.77;;;4.47;;
4565;SDS011;2295;51.050;14.608;2022-09-01T04:29:31;11.57;;;4.70;;
4565;SDS011;2295;51.050;14.608;2022-09-01T04:32:00;8.07;;;5.10;;
4565;SDS011;2295;51.050;14.608;2022-09-01T04:34:31;5.75;;;5.22;;
4565;SDS011;2295;51.050;14.608;2022-09-01T04:37:06;4.88;;;4.47;;
4565;SDS011;2295;51.050;14.608;2022-09-01T04:39:36;5.50;;;4.60;;
4565;SDS011;2295;51.050;14.608;2022-09-01T04:42:05;8.05;;;5.15;;
4565;SDS011;2295;51.050;14.608;2022-09-01T04:44:37;10.10;;;7.20;;
4565;SDS011;2295;51.050;14.608;2022-09-01T04:47:05;7.25;;;5.88;;
4565;SDS011;2295;51.050;14.608;2022-09-01T04:49:36;12.55;;;6.15;;
4565;SDS011;2295;51.050;14.608;2022-09-01T04:52:04;12.20;;;6.85;;
4565;SDS011;2295;51.050;14.608;2022-09-01T04:54:33;7.78;;;6.45;;
4565;SDS011;2295;51.050;14.608;2022-09-01T04:57:03;8.80;;;6.18;;
4565;SDS011;2295;51.050;14.608;2022-09-01T04:59:32;8.90;;;5.75;;
4565;SDS011;2295;51.050;14.608;2022-09-01T05:02:02;9.20;;;6.57;;
4565;SDS011;2295;51.050;14.608;2022-09-01T05:04:33;6.90;;;5.85;;
4565;SDS011;2295;51.050;14.608;2022-09-01T05:07:03;9.32;;;6.35;;
4565;SDS011;2295;51.050;14.608;2022-09-01T05:09:34;7.05;;;5.68;;
4565;SDS011;2295;51.050;14.608;2022-09-01T05:12:04;8.55;;;6.32;;
4565;SDS011;2295;51.050;14.608;2022-09-01T05:14:41;8.95;;;6.22;;
4565;SDS011;2295;51.050;14.608;2022-09-01T05:17:15;9.38;;;6.57;;
4565;SDS011;2295;51.050;14.608;2022-09-01T05:19:44;7.60;;;5.60;;
4565;SDS011;2295;51.050;14.608;2022-09-01T05:22:16;6.90;;;6.20;;
4565;SDS011;2295;51.050;14.608;2022-09-01T05:24:48;7.82;;;6.10;;
4565;SDS011;2295;51.050;14.608;2022-09-01T05:27:21;6.97;;;6.28;;
4565;SDS011;2295;51.050;14.608;2022-09-01T05:29:49;8.55;;;5.95;;
4565;SDS011;2295;51.050;14.608;2022-09-01T05:32:19;7.70;;;5.35;;
4565;SDS011;2295;51.050;14.608;2022-09-01T05:34:51;7.88;;;5.53;;
4565;SDS011;2295;51.050;14.608;2022-09-01T05:37:20;6.22;;;5.70;;
4565;SDS011;2295;51.050;14.608;2022-09-01T05:39:48;8.82;;;5.40;;
4565;SDS011;2295;51.050;14.608;2022-09-01T05:42:18;8.02;;;5.25;;
4565;SDS011;2295;51.050;14.608;2022-09-01T05:44:47;5.15;;;4.70;;
4565;SDS011;2295;51.050;14.608;2022-09-01T05:47:18;6.68;;;4.65;;
4565;SDS011;2295;51.050;14.608;2022-09-01T05:49:48;5.57;;;5.03;;
4565;SDS011;2295;51.050;14.608;2022-09-01T05:52:19;8.45;;;5.85;;
4565;SDS011;2295;51.050;14.608;2022-09-01T05:54:52;9.48;;;5.50;;
4565;SDS011;2295;51.050;14.608;2022-09-01T05:57:26;7.28;;;4.72;;
4565;SDS011;2295;51.050;14.608;2022-09-01T06:00:00;5.88;;;5.32;;
4565;SDS011;2295;51.050;14.608;2022-09-01T06:02:37;6.82;;;5.40;;
4565;SDS011;2295;51.050;14.608;2022-09-01T06:05:06;16.73;;;5.20;;
4565;SDS011;2295;51.050;14.608;2022-09-01T06:07:36;13.38;;;5.70;;
4565;SDS011;2295;51.050;14.608;2022-09-01T06:10:06;9.00;;;5.70;;
4565;SDS011;2295;51.050;14.608;2022-09-01T06:12:35;8.73;;;6.43;;
4565;SDS011;2295;51.050;14.608;2022-09-01T06:15:06;11.05;;;5.70;;
4565;SDS011;2295;51.050;14.608;2022-09-01T06:17:42;8.35;;;5.32;;
4565;SDS011;2295;51.050;14.608;2022-09-01T06:20:11;8.15;;;5.22;;
4565;SDS011;2295;51.050;14.608;2022-09-01T06:22:43;8.57;;;5.40;;
4565;SDS011;2295;51.050;14.608;2022-09-01T06:25:12;8.80;;;5.25;;
4565;SDS011;2295;51.050;14.608;2022-09-01T06:27:42;11.27;;;5.88;;
4565;SDS011;2295;51.050;14.608;2022-09-01T06:30:11;8.63;;;5.45;;
4565;SDS011;2295;51.050;14.608;2022-09-01T06:32:51;7.82;;;6.20;;
4565;SDS011;2295;51.050;14.608;2022-09-01T06:35:21;18.05;;;5.93;;
4565;SDS011;2295;51.050;14.608;2022-09-01T06:37:54;7.53;;;5.20;;
4565;SDS011;2295;51.050;14.608;2022-09-01T06:40:23;5.57;;;5.07;;
4565;SDS011;2295;51.050;14.608;2022-09-01T06:42:52;8.85;;;5.30;;
4565;SDS011;2295;51.050;14.608;2022-09-01T06:45:21;12.23;;;5.50;;
4565;SDS011;2295;51.050;14.608;2022-09-01T06:47:52;15.15;;;4.65;;
4565;SDS011;2295;51.050;14.608;2022-09-01T06:50:25;13.70;;;5.25;;
4565;SDS011;2295;51.050;14.608;2022-09-01T06:53:15;13.98;;;4.68;;
4565;SDS011;2295;51.050;14.608;2022-09-01T06:56:00;9.57;;;4.20;;
4565;SDS011;2295;51.050;14.608;2022-09-01T06:58:29;11.98;;;4.53;;
4565;SDS011;2295;51.050;14.608;2022-09-01T07:00:58;8.60;;;4.25;;
4565;SDS011;2295;51.050;14.608;2022-09-01T07:03:33;8.05;;;4.10;;
4565;SDS011;2295;51.050;14.608;2022-09-01T07:06:03;7.20;;;5.53;;
4565;SDS011;2295;51.050;14.608;2022-09-01T07:08:35;12.68;;;4.28;;
4565;SDS011;2295;51.050;14.608;2022-09-01T07:11:25;9.77;;;4.10;;
4565;SDS011;2295;51.050;14.608;2022-09-01T07:14:16;5.32;;;3.92;;
4565;SDS011;2295;51.050;14.608;2022-09-01T07:16:44;8.73;;;4.50;;
4565;SDS011;2295;51.050;14.608;2022-09-01T07:19:20;5.22;;;4.05;;
4565;SDS011;2295;51.050;14.608;2022-09-01T07:22:08;7.78;;;4.03;;
4565;SDS011;2295;51.050;14.608;2022-09-01T07:24:56;4.10;;;3.67;;
4565;SDS011;2295;51.050;14.608;2022-09-01T07:27:37;5.88;;;3.83;;
4565;SDS011;2295;51.050;14.608;2022-09-01T07:30:07;5.60;;;3.78;;
4565;SDS011;2295;51.050;14.608;2022-09-01T07:32:37;9.27;;;4.90;;
4565;SDS011;2295;51.050;14.608;2022-09-01T07:35:15;5.45;;;4.55;;
4565;SDS011;2295;51.050;14.608;2022-09-01T07:37:46;6.47;;;4.40;;
4565;SDS011;2295;51.050;14.608;2022-09-01T07:40:35;8.25;;;4.97;;
4565;SDS011;2295;51.050;14.608;2022-09-01T07:43:24;4.82;;;4.03;;
4565;SDS011;2295;51.050;14.608;2022-09-01T07:45:58;6.30;;;4.50;;
4565;SDS011;2295;51.050;14.608;2022-09-01T07:48:51;9.20;;;4.75;;
4565;SDS011;2295;51.050;14.608;2022-09-01T07:51:42;6.78;;;4.40;;
4565;SDS011;2295;51.050;14.608;2022-09-01T07:54:13;6.15;;;4.05;;
4565;SDS011;2295;51.050;14.608;2022-09-01T07:56:41;6.45;;;4.07;;
4565;SDS011;2295;51.050;14.608;2022-09-01T07:59:09;5.45;;;4.30;;
4565;SDS011;2295;51.050;14.608;2022-09-01T08:01:41;8.02;;;4.90;;
4565;SDS011;2295;51.050;14.608;2022-09-01T08:04:09;8.07;;;4.20;;
4565;SDS011;2295;51.050;14.608;2022-09-01T08:06:38;13.00;;;4.20;;
4565;SDS011;2295;51.050;14.608;2022-09-01T08:09:08;6.55;;;4.75;;
4565;SDS011;2295;51.050;14.608;2022-09-01T08:11:58;7.60;;;4.28;;
4565;SDS011;2295;51.050;14.608;2022-09-01T08:14:28;9.57;;;4.50;;
4565;SDS011;2295;51.050;14.608;2022-09-01T08:17:00;7.45;;;5.22;;
4565;SDS011;2295;51.050;14.608;2022-09-01T08:19:49;6.97;;;4.93;;
4565;SDS011;2295;51.050;14.608;2022-09-01T08:22:19;5.35;;;4.10;;
4565;SDS011;2295;51.050;14.608;2022-09-01T08:24:51;5.95;;;4.30;;
4565;SDS011;2295;51.050;14.608;2022-09-01T08:27:20;5.00;;;4.57;;
4565;SDS011;2295;51.050;14.608;2022-09-01T08:29:48;10.70;;;4.10;;
4565;SDS011;2295;51.050;14.608;2022-09-01T08:32:16;5.83;;;3.60;;
4565;SDS011;2295;51.050;14.608;2022-09-01T08:34:46;13.83;;;4.33;;
4565;SDS011;2295;51.050;14.608;2022-09-01T08:37:14;10.93;;;4.23;;
4565;SDS011;2295;51.050;14.608;2022-09-01T08:39:42;5.90;;;3.97;;
4565;SDS011;2295;51.050;14.608;2022-09-01T08:42:14;9.23;;;4.20;;
4565;SDS011;2295;51.050;14.608;2022-09-01T08:44:50;10.63;;;4.27;;
4565;SDS011;2295;51.050;14.608;2022-09-01T08:47:24;4.73;;;3.60;;
4565;SDS011;2295;51.050;14.608;2022-09-01T08:50:09;6.80;;;3.30;;
4565;SDS011;2295;51.050;14.608;2022-09-01T08:52:39;3.50;;;3.10;;
4565;SDS011;2295;51.050;14.608;2022-09-01T08:55:13;5.77;;;3.53;;
4565;SDS011;2295;51.050;14.608;2022-09-01T08:57:50;5.23;;;3.80;;
4565;SDS011;2295;51.050;14.608;2022-09-01T09:00:25;4.13;;;3.33;;
4565;SDS011;2295;51.050;14.608;2022-09-01T09:03:04;6.40;;;3.53;;
4565;SDS011;2295;51.050;14.608;2022-09-01T09:05:46;8.40;;;4.30;;
4565;SDS011;2295;51.050;14.608;2022-09-01T09:08:33;9.53;;;3.83;;
4565;SDS011;2295;51.050;14.608;2022-09-01T09:11:36;4.57;;;3.20;;
4565;SDS011;2295;51.050;14.608;2022-09-01T09:14:16;9.17;;;3.43;;
4565;SDS011;2295;51.050;14.608;2022-09-01T09:16:54;6.40;;;3.70;;
4565;SDS011;2295;51.050;14.608;2022-09-01T09:19:24;9.60;;;3.50;;
4565;SDS011;2295;51.050;14.608;2022-09-01T09:21:56;2.97;;;2.47;;
4565;SDS011;2295;51.050;14.608;2022-09-01T09:24:26;5.13;;;2.60;;
4565;SDS011;2295;51.050;14.608;2022-09-01T09:27:15;4.10;;;2.90;;
4565;SDS011;2295;51.050;14.608;2022-09-01T09:29:48;5.20;;;2.50;;
4565;SDS011;2295;51.050;14.608;2022-09-01T09:32:18;7.10;;;2.87;;
4565;SDS011;2295;51.050;14.608;2022-09-01T09:34:53;2.77;;;2.50;;
4565;SDS011;2295;51.050;14.608;2022-09-01T09:37:23;3.83;;;2.17;;
4565;SDS011;2295;51.050;14.608;2022-09-01T09:40:04;3.20;;;1.93;;
4565;SDS011;2295;51.050;14.608;2022-09-01T09:42:39;3.23;;;1.83;;
4565;SDS011;2295;51.050;14.608;2022-09-01T09:45:20;4.47;;;1.93;;
4565;SDS011;2295;51.050;14.608;2022-09-01T09:47:50;2.47;;;2.07;;
4565;SDS011;2295;51.050;14.608;2022-09-01T09:50:22;5.13;;;2.20;;
4565;SDS011;2295;51.050;14.608;2022-09-01T09:52:53;3.67;;;2.17;;
4565;SDS011;2295;51.050;14.608;2022-09-01T09:55:51;6.20;;;2.57;;
4565;SDS011;2295;51.050;14.608;2022-09-01T09:58:27;3.00;;;1.90;;
4565;SDS011;2295;51.050;14.608;2022-09-01T10:01:04;2.10;;;1.90;;
4565;SDS011;2295;51.050;14.608;2022-09-01T10:03:37;8.77;;;1.93;;
4565;SDS011;2295;51.050;14.608;2022-09-01T10:06:09;4.80;;;2.37;;
4565;SDS011;2295;51.050;14.608;2022-09-01T10:08:56;1.90;;;1.80;;
4565;SDS011;2295;51.050;14.608;2022-09-01T10:11:27;4.87;;;1.80;;
4565;SDS011;2295;51.050;14.608;2022-09-01T10:14:06;2.20;;;2.00;;
4565;SDS011;2295;51.050;14.608;2022-09-01T10:17:03;1.93;;;1.73;;
4565;SDS011;2295;51.050;14.608;2022-09-01T10:19:35;16.67;;;2.43;;
4565;SDS011;2295;51.050;14.608;2022-09-01T10:22:07;1.77;;;1.63;;
4565;SDS011;2295;51.050;14.608;2022-09-01T10:24:36;5.53;;;1.93;;
4565;SDS011;2295;51.050;14.608;2022-09-01T10:27:12;2.30;;;2.10;;
4565;SDS011;2295;51.050;14.608;2022-09-01T10:29:47;2.73;;;2.30;;
4565;SDS011;2295;51.050;14.608;2022-09-01T10:32:39;4.43;;;2.47;;
4565;SDS011;2295;51.050;14.608;2022-09-01T10:35:20;2.50;;;2.13;;
4565;SDS011;2295;51.050;14.608;2022-09-01T10:37:51;2.70;;;2.20;;
4565;SDS011;2295;51.050;14.608;2022-09-01T10:40:34;2.20;;;1.90;;
4565;SDS011;2295;51.050;14.608;2022-09-01T10:43:27;3.97;;;2.23;;
4565;SDS011;2295;51.050;14.608;2022-09-01T10:46:17;6.93;;;2.23;;
4565;SDS011;2295;51.050;14.608;2022-09-01T10:55:23;3.67;;;2.40;;
4565;SDS011;2295;51.050;14.608;2022-09-01T10:57:59;7.70;;;1.77;;
4565;SDS011;2295;51.050;14.608;2022-09-01T11:01:06;3.40;;;2.20;;
4565;SDS011;2295;51.050;14.608;2022-09-01T11:06:42;7.43;;;2.00;;
4565;SDS011;2295;51.050;14.608;2022-09-01T11:09:39;6.60;;;1.97;;
4565;SDS011;2295;51.050;14.608;2022-09-01T11:12:12;3.77;;;2.30;;
4565;SDS011;2295;51.050;14.608;2022-09-01T11:15:31;6.33;;;2.10;;
4565;SDS011;2295;51.050;14.608;2022-09-01T11:18:07;3.30;;;1.73;;
4565;SDS011;2295;51.050;14.608;2022-09-01T11:20:42;2.20;;;1.80;;
4565;SDS011;2295;51.050;14.608;2022-09-01T11:23:18;2.80;;;1.50;;
4565;SDS011;2295;51.050;14.608;2022-09-01T11:25:51;1.80;;;1.70;;
4565;SDS011;2295;51.050;14.608;2022-09-01T11:28:41;3.90;;;1.77;;
4565;SDS011;2295;51.050;14.608;2022-09-01T11:34:11;1.10;;;1.00;;
4565;SDS011;2295;51.050;14.608;2022-09-01T11:36:46;1.10;;;1.00;;
4565;SDS011;2295;51.050;14.608;2022-09-01T11:39:32;1.70;;;1.13;;
4565;SDS011;2295;51.050;14.608;2022-09-01T11:42:08;1.20;;;1.07;;
4565;SDS011;2295;51.050;14.608;2022-09-01T11:44:46;1.10;;;1.00;;
4565;SDS011;2295;51.050;14.608;2022-09-01T11:47:19;1.20;;;1.10;;
4565;SDS011;2295;51.050;14.608;2022-09-01T11:49:52;1.57;;;1.00;;
4565;SDS011;2295;51.050;14.608;2022-09-01T11:52:25;1.10;;;1.00;;
4565;SDS011;2295;51.050;14.608;2022-09-01T11:54:56;1.87;;;1.20;;
4565;SDS011;2295;51.050;14.608;2022-09-01T11:57:28;11.10;;;1.50;;
4565;SDS011;2295;51.050;14.608;2022-09-01T11:59:58;3.10;;;1.47;;
4565;SDS011;2295;51.050;14.608;2022-09-01T12:02:28;2.87;;;1.43;;
4565;SDS011;2295;51.050;14.608;2022-09-01T12:05:03;2.40;;;1.43;;
4565;SDS011;2295;51.050;14.608;2022-09-01T12:07:50;1.60;;;1.30;;
4565;SDS011;2295;51.050;14.608;2022-09-01T12:10:19;1.70;;;1.50;;
4565;SDS011;2295;51.050;14.608;2022-09-01T12:13:00;2.83;;;1.30;;
4565;SDS011;2295;51.050;14.608;2022-09-01T12:15:30;2.23;;;1.30;;
4565;SDS011;2295;51.050;14.608;2022-09-01T12:18:13;5.03;;;1.53;;
4565;SDS011;2295;51.050;14.608;2022-09-01T12:20:47;1.60;;;1.50;;
4565;SDS011;2295;51.050;14.608;2022-09-01T12:23:18;2.53;;;1.40;;
4565;SDS011;2295;51.050;14.608;2022-09-01T12:25:51;3.73;;;1.50;;
4565;SDS011;2295;51.050;14.608;2022-09-01T12:28:24;1.67;;;1.33;;
4565;SDS011;2295;51.050;14.608;2022-09-01T12:30:58;4.03;;;1.13;;
4565;SDS011;2295;51.050;14.608;2022-09-01T12:33:27;1.37;;;1.20;;
4565;SDS011;2295;51.050;14.608;2022-09-01T12:38:50;1.43;;;1.30;;
4565;SDS011;2295;51.050;14.608;2022-09-01T12:41:24;7.13;;;1.37;;
4565;SDS011;2295;51.050;14.608;2022-09-01T12:46:57;2.93;;;1.10;;
4565;SDS011;2295;51.050;14.608;2022-09-01T12:49:35;1.80;;;1.00;;
4565;SDS011;2295;51.050;14.608;2022-09-01T12:52:21;7.17;;;1.10;;
4565;SDS011;2295;51.050;14.608;2022-09-01T12:54:52;1.60;;;1.00;;
4565;SDS011;2295;51.050;14.608;2022-09-01T12:57:34;1.20;;;1.10;;
4565;SDS011;2295;51.050;14.608;2022-09-01T13:00:11;8.97;;;1.70;;
4565;SDS011;2295;51.050;14.608;2022-09-01T13:02:43;2.30;;;1.10;;
4565;SDS011;2295;51.050;14.608;2022-09-01T13:05:18;1.00;;;0.80;;
4565;SDS011;2295;51.050;14.608;2022-09-01T13:07:58;4.10;;;2.00;;
4565;SDS011;2295;51.050;14.608;2022-09-01T13:10:30;3.27;;;2.10;;
4565;SDS011;2295;51.050;14.608;2022-09-01T13:12:59;4.23;;;2.67;;
4565;SDS011;2295;51.050;14.608;2022-09-01T13:15:30;2.33;;;1.63;;
4565;SDS011;2295;51.050;14.608;2022-09-01T13:17:58;1.97;;;1.10;;
4565;SDS011;2295;51.050;14.608;2022-09-01T13:20:27;1.77;;;1.20;;
4565;SDS011;2295;51.050;14.608;2022-09-01T13:22:55;3.17;;;1.30;;
4565;SDS011;2295;51.050;14.608;2022-09-01T13:25:24;3.17;;;1.23;;
4565;SDS011;2295;51.050;14.608;2022-09-01T13:27:52;4.93;;;1.33;;
4565;SDS011;2295;51.050;14.608;2022-09-01T13:30:22;1.57;;;1.20;;
4565;SDS011;2295;51.050;14.608;2022-09-01T13:32:55;3.50;;;1.23;;
4565;SDS011;2295;51.050;14.608;2022-09-01T13:35:43;1.60;;;0.93;;
4565;SDS011;2295;51.050;14.608;2022-09-01T13:38:12;1.50;;;1.30;;
4565;SDS011;2295;51.050;14.608;2022-09-01T13:40:42;2.20;;;1.00;;
4565;SDS011;2295;51.050;14.608;2022-09-01T13:43:11;4.27;;;1.00;;
4565;SDS011;2295;51.050;14.608;2022-09-01T13:45:40;3.87;;;2.03;;
4565;SDS011;2295;51.050;14.608;2022-09-01T13:48:12;5.70;;;0.97;;
4565;SDS011;2295;51.050;14.608;2022-09-01T13:50:43;1.00;;;0.90;;
4565;SDS011;2295;51.050;14.608;2022-09-01T13:53:32;2.10;;;1.20;;
4565;SDS011;2295;51.050;14.608;2022-09-01T13:56:00;2.20;;;1.20;;
4565;SDS011;2295;51.050;14.608;2022-09-01T13:58:29;4.77;;;1.30;;
4565;SDS011;2295;51.050;14.608;2022-09-01T14:00:57;1.40;;;1.00;;
4565;SDS011;2295;51.050;14.608;2022-09-01T14:03:27;3.80;;;1.23;;
4565;SDS011;2295;51.050;14.608;2022-09-01T14:05:57;3.77;;;1.10;;
4565;SDS011;2295;51.050;14.608;2022-09-01T14:08:26;6.80;;;1.90;;
4565;SDS011;2295;51.050;14.608;2022-09-01T14:10:55;2.40;;;1.00;;
4565;SDS011;2295;51.050;14.608;2022-09-01T14:13:23;8.60;;;1.43;;
4565;SDS011;2295;51.050;14.608;2022-09-01T14:15:53;3.20;;;1.20;;
4565;SDS011;2295;51.050;14.608;2022-09-01T14:18:21;2.53;;;1.50;;
4565;SDS011;2295;51.050;14.608;2022-09-01T14:20:51;2.60;;;1.37;;
4565;SDS011;2295;51.050;14.608;2022-09-01T14:23:22;3.53;;;1.70;;
4565;SDS011;2295;51.050;14.608;2022-09-01T14:25:50;2.30;;;1.30;;
4565;SDS011;2295;51.050;14.608;2022-09-01T14:28:19;2.60;;;1.00;;
4565;SDS011;2295;51.050;14.608;2022-09-01T14:30:49;1.73;;;1.00;;
4565;SDS011;2295;51.050;14.608;2022-09-01T14:33:17;4.70;;;1.03;;
4565;SDS011;2295;51.050;14.608;2022-09-01T14:35:52;2.97;;;1.00;;
4565;SDS011;2295;51.050;14.608;2022-09-01T14:38:20;3.03;;;1.00;;
4565;SDS011;2295;51.050;14.608;2022-09-01T14:40:49;1.73;;;1.10;;
4565;SDS011;2295;51.050;14.608;2022-09-01T14:43:17;1.73;;;1.20;;
4565;SDS011;2295;51.050;14.608;2022-09-01T14:45:46;2.33;;;1.10;;
4565;SDS011;2295;51.050;14.608;2022-09-01T14:48:15;5.60;;;1.10;;
4565;SDS011;2295;51.050;14.608;2022-09-01T14:50:46;1.40;;;0.93;;
4565;SDS011;2295;51.050;14.608;2022-09-01T14:53:18;2.33;;;1.20;;
4565;SDS011;2295;51.050;14.608;2022-09-01T14:55:48;3.10;;;1.10;;
4565;SDS011;2295;51.050;14.608;2022-09-01T14:58:21;2.80;;;1.63;;
4565;SDS011;2295;51.050;14.608;2022-09-01T15:00:50;2.67;;;1.00;;
4565;SDS011;2295;51.050;14.608;2022-09-01T15:03:32;2.63;;;1.27;;
4565;SDS011;2295;51.050;14.608;2022-09-01T15:06:01;2.50;;;1.20;;
4565;SDS011;2295;51.050;14.608;2022-09-01T15:08:30;2.00;;;1.23;;
4565;SDS011;2295;51.050;14.608;2022-09-01T15:10:59;1.20;;;1.10;;
4565;SDS011;2295;51.050;14.608;2022-09-01T15:13:27;2.83;;;1.40;;
4565;SDS011;2295;51.050;14.608;2022-09-01T15:15:56;5.07;;;1.10;;
4565;SDS011;2295;51.050;14.608;2022-09-01T15:18:25;1.17;;;1.07;;
4565;SDS011;2295;51.050;14.608;2022-09-01T15:20:53;1.73;;;1.20;;
4565;SDS011;2295;51.050;14.608;2022-09-01T15:23:22;2.03;;;1.33;;
4565;SDS011;2295;51.050;14.608;2022-09-01T15:25:54;5.03;;;1.37;;
4565;SDS011;2295;51.050;14.608;2022-09-01T15:28:23;3.10;;;1.30;;
4565;SDS011;2295;51.050;14.608;2022-09-01T15:30:52;1.60;;;1.17;;
4565;SDS011;2295;51.050;14.608;2022-09-01T15:33:22;2.77;;;1.57;;
4565;SDS011;2295;51.050;14.608;2022-09-01T15:35:50;2.23;;;1.47;;
4565;SDS011;2295;51.050;14.608;2022-09-01T15:38:19;3.33;;;1.40;;
4565;SDS011;2295;51.050;14.608;2022-09-01T15:40:55;2.10;;;1.30;;
4565;SDS011;2295;51.050;14.608;2022-09-01T15:43:24;5.63;;;1.17;;
4565;SDS011;2295;51.050;14.608;2022-09-01T15:45:54;5.07;;;1.47;;
4565;SDS011;2295;51.050;14.608;2022-09-01T15:48:24;3.73;;;1.27;;
4565;SDS011;2295;51.050;14.608;2022-09-01T15:50:55;1.20;;;1.07;;
4565;SDS011;2295;51.050;14.608;2022-09-01T15:53:42;5.63;;;1.70;;